sensor_id;sensor_type;location;lat;lon;timestamp;P1;durP1;ratioP1;P2;durP2;ratioP2
1048;SDS011;513;51.444;7.196;2023-07-24T00:01:30;7.85;;;3.97;;
1048;SDS011;513;51.444;7.196;2023-07-24T00:03:57;5.55;;;3.92;;
1048;SDS011;513;51.444;7.196;2023-07-24T00:06:24;5.18;;;4.20;;
1048;SDS011;513;51.444;7.196;2023-07-24T00:08:51;6.10;;;4.30;;
1048;SDS011;513;51.444;7.196;2023-07-24T00:11:18;8.05;;;4.38;;
1048;SDS011;513;51.444;7.196;2023-07-24T00:13:45;7.18;;;4.68;;
1048;SDS011;513;51.444;7.196;2023-07-24T00:16:12;6.75;;;4.85;;
1048;SDS011;513;51.444;7.196;2023-07-24T00:18:40;7.40;;;4.68;;
1048;SDS011;513;51.444;7.196;2023-07-24T00:21:07;8.63;;;4.97;;
1048;SDS011;513;51.444;7.196;2023-07-24T00:23:35;9.13;;;4.80;;
1048;SDS011;513;51.444;7.196;2023-07-24T00:26:02;7.47;;;4.90;;
1048;SDS011;513;51.444;7.196;2023-07-24T00:28:29;6.70;;;4.70;;
1048;SDS011;513;51.444;7.196;2023-07-24T00:30:56;8.13;;;4.88;;
1048;SDS011;513;51.444;7.196;2023-07-24T00:33:23;7.75;;;5.25;;
1048;SDS011;513;51.444;7.196;2023-07-24T00:35:52;7.60;;;4.88;;
1048;SDS011;513;51.444;7.196;2023-07-24T00:38:21;7.30;;;4.72;;
1048;SDS011;513;51.444;7.196;2023-07-24T00:40:48;6.55;;;4.88;;
1048;SDS011;513;51.444;7.196;2023-07-24T00:43:16;6.68;;;4.70;;
1048;SDS011;513;51.444;7.196;2023-07-24T00:45:43;5.72;;;4.55;;
1048;SDS011;513;51.444;7.196;2023-07-24T00:48:11;9.50;;;4.97;;
1048;SDS011;513;51.444;7.196;2023-07-24T00:50:38;7.07;;;4.70;;
1048;SDS011;513;51.444;7.196;2023-07-24T00:53:07;6.63;;;4.40;;
1048;SDS011;513;51.444;7.196;2023-07-24T00:55:34;10.87;;;4.93;;
1048;SDS011;513;51.444;7.196;2023-07-24T00:58:01;8.05;;;4.85;;
1048;SDS011;513;51.444;7.196;2023-07-24T01:00:29;9.80;;;5.03;;
1048;SDS011;513;51.444;7.196;2023-07-24T01:02:56;6.97;;;4.88;;
1048;SDS011;513;51.444;7.196;2023-07-24T01:05:23;7.18;;;4.90;;
1048;SDS011;513;51.444;7.196;2023-07-24T01:07:51;8.95;;;4.90;;
1048;SDS011;513;51.444;7.196;2023-07-24T01:10:20;7.13;;;4.90;;
1048;SDS011;513;51.444;7.196;2023-07-24T01:12:50;9.82;;;5.20;;
1048;SDS011;513;51.444;7.196;2023-07-24T01:15:19;7.82;;;5.15;;
1048;SDS011;513;51.444;7.196;2023-07-24T01:17:50;7.55;;;4.60;;
1048;SDS011;513;51.444;7.196;2023-07-24T01:20:17;6.47;;;4.25;;
1048;SDS011;513;51.444;7.196;2023-07-24T01:22:48;7.03;;;4.32;;
1048;SDS011;513;51.444;7.196;2023-07-24T01:25:17;6.80;;;4.40;;
1048;SDS011;513;51.444;7.196;2023-07-24T01:27:46;5.53;;;4.18;;
1048;SDS011;513;51.444;7.196;2023-07-24T01:30:16;7.40;;;4.22;;
1048;SDS011;513;51.444;7.196;2023-07-24T01:32:43;5.05;;;3.80;;
1048;SDS011;513;51.444;7.196;2023-07-24T01:35:10;6.07;;;4.07;;
1048;SDS011;513;51.444;7.196;2023-07-24T01:37:37;5.78;;;4.30;;
1048;SDS011;513;51.444;7.196;2023-07-24T01:40:05;6.03;;;4.47;;
1048;SDS011;513;51.444;7.196;2023-07-24T01:42:33;6.82;;;4.50;;
1048;SDS011;513;51.444;7.196;2023-07-24T01:45:02;6.28;;;4.40;;
1048;SDS011;513;51.444;7.196;2023-07-24T01:47:29;8.45;;;4.40;;
1048;SDS011;513;51.444;7.196;2023-07-24T01:49:56;6.45;;;4.65;;
1048;SDS011;513;51.444;7.196;2023-07-24T01:52:23;6.47;;;4.32;;
1048;SDS011;513;51.444;7.196;2023-07-24T01:54:50;8.75;;;4.40;;
1048;SDS011;513;51.444;7.196;2023-07-24T01:57:17;6.78;;;4.63;;
1048;SDS011;513;51.444;7.196;2023-07-24T01:59:44;5.88;;;4.60;;
1048;SDS011;513;51.444;7.196;2023-07-24T02:02:12;7.35;;;5.07;;
1048;SDS011;513;51.444;7.196;2023-07-24T02:04:39;6.45;;;4.45;;
1048;SDS011;513;51.444;7.196;2023-07-24T02:07:06;7.97;;;5.07;;
1048;SDS011;513;51.444;7.196;2023-07-24T02:09:34;5.65;;;4.18;;
1048;SDS011;513;51.444;7.196;2023-07-24T02:12:01;8.43;;;4.50;;
1048;SDS011;513;51.444;7.196;2023-07-24T02:14:28;7.70;;;4.93;;
1048;SDS011;513;51.444;7.196;2023-07-24T02:16:55;8.88;;;4.90;;
1048;SDS011;513;51.444;7.196;2023-07-24T02:19:23;7.32;;;4.90;;
1048;SDS011;513;51.444;7.196;2023-07-24T02:21:50;7.43;;;4.88;;
1048;SDS011;513;51.444;7.196;2023-07-24T02:24:17;8.68;;;4.90;;
1048;SDS011;513;51.444;7.196;2023-07-24T02:26:44;8.88;;;4.97;;
1048;SDS011;513;51.444;7.196;2023-07-24T02:29:11;7.25;;;4.93;;
1048;SDS011;513;51.444;7.196;2023-07-24T02:31:38;7.72;;;5.20;;
1048;SDS011;513;51.444;7.196;2023-07-24T02:34:05;8.88;;;5.47;;
1048;SDS011;513;51.444;7.196;2023-07-24T02:36:33;8.55;;;5.15;;
1048;SDS011;513;51.444;7.196;2023-07-24T02:39:00;9.82;;;5.40;;
1048;SDS011;513;51.444;7.196;2023-07-24T02:41:27;7.28;;;5.03;;
1048;SDS011;513;51.444;7.196;2023-07-24T02:43:54;9.55;;;5.30;;
1048;SDS011;513;51.444;7.196;2023-07-24T02:46:21;8.80;;;5.43;;
1048;SDS011;513;51.444;7.196;2023-07-24T02:48:49;8.07;;;5.55;;
1048;SDS011;513;51.444;7.196;2023-07-24T02:51:16;7.80;;;5.47;;
1048;SDS011;513;51.444;7.196;2023-07-24T02:53:44;9.40;;;5.50;;
1048;SDS011;513;51.444;7.196;2023-07-24T02:56:11;7.07;;;5.30;;
1048;SDS011;513;51.444;7.196;2023-07-24T02:58:38;6.93;;;5.18;;
1048;SDS011;513;51.444;7.196;2023-07-24T03:01:06;8.98;;;5.43;;
1048;SDS011;513;51.444;7.196;2023-07-24T03:03:33;8.45;;;5.43;;
1048;SDS011;513;51.444;7.196;2023-07-24T03:06:00;7.22;;;5.15;;
1048;SDS011;513;51.444;7.196;2023-07-24T03:08:27;8.27;;;5.35;;
1048;SDS011;513;51.444;7.196;2023-07-24T03:10:55;8.30;;;5.10;;
1048;SDS011;513;51.444;7.196;2023-07-24T03:13:22;8.00;;;5.10;;
1048;SDS011;513;51.444;7.196;2023-07-24T03:15:53;8.15;;;5.57;;
1048;SDS011;513;51.444;7.196;2023-07-24T03:18:20;9.23;;;5.50;;
1048;SDS011;513;51.444;7.196;2023-07-24T03:20:47;10.20;;;5.88;;
1048;SDS011;513;51.444;7.196;2023-07-24T03:23:14;8.50;;;5.78;;
1048;SDS011;513;51.444;7.196;2023-07-24T03:25:41;11.40;;;5.90;;
1048;SDS011;513;51.444;7.196;2023-07-24T03:28:09;10.35;;;6.22;;
1048;SDS011;513;51.444;7.196;2023-07-24T03:30:36;11.00;;;6.03;;
1048;SDS011;513;51.444;7.196;2023-07-24T03:33:03;8.43;;;6.00;;
1048;SDS011;513;51.444;7.196;2023-07-24T03:35:31;11.63;;;6.05;;
1048;SDS011;513;51.444;7.196;2023-07-24T03:37:58;10.20;;;5.53;;
1048;SDS011;513;51.444;7.196;2023-07-24T03:40:25;9.32;;;6.15;;
1048;SDS011;513;51.444;7.196;2023-07-24T03:42:52;8.90;;;6.00;;
1048;SDS011;513;51.444;7.196;2023-07-24T03:45:21;11.35;;;6.47;;
1048;SDS011;513;51.444;7.196;2023-07-24T03:47:48;9.45;;;6.40;;
1048;SDS011;513;51.444;7.196;2023-07-24T03:50:15;10.45;;;6.00;;
1048;SDS011;513;51.444;7.196;2023-07-24T03:52:42;9.98;;;6.15;;
1048;SDS011;513;51.444;7.196;2023-07-24T03:55:09;9.40;;;6.50;;
1048;SDS011;513;51.444;7.196;2023-07-24T03:57:36;10.85;;;6.28;;
1048;SDS011;513;51.444;7.196;2023-07-24T04:00:03;9.40;;;6.32;;
1048;SDS011;513;51.444;7.196;2023-07-24T04:02:32;9.07;;;6.17;;
1048;SDS011;513;51.444;7.196;2023-07-24T04:04:59;10.73;;;6.82;;
1048;SDS011;513;51.444;7.196;2023-07-24T04:07:26;11.27;;;8.43;;
1048;SDS011;513;51.444;7.196;2023-07-24T04:09:52;9.45;;;6.30;;
1048;SDS011;513;51.444;7.196;2023-07-24T04:12:20;8.85;;;5.90;;
1048;SDS011;513;51.444;7.196;2023-07-24T04:14:47;10.70;;;6.28;;
1048;SDS011;513;51.444;7.196;2023-07-24T04:17:15;11.37;;;6.53;;
1048;SDS011;513;51.444;7.196;2023-07-24T04:19:43;10.93;;;6.25;;
1048;SDS011;513;51.444;7.196;2023-07-24T04:22:10;9.80;;;6.30;;
1048;SDS011;513;51.444;7.196;2023-07-24T04:24:37;9.55;;;6.55;;
1048;SDS011;513;51.444;7.196;2023-07-24T04:27:04;10.73;;;6.45;;
1048;SDS011;513;51.444;7.196;2023-07-24T04:29:31;10.60;;;6.13;;
1048;SDS011;513;51.444;7.196;2023-07-24T04:31:58;8.20;;;5.97;;
1048;SDS011;513;51.444;7.196;2023-07-24T04:34:25;9.77;;;6.18;;
1048;SDS011;513;51.444;7.196;2023-07-24T04:36:54;9.32;;;5.70;;
1048;SDS011;513;51.444;7.196;2023-07-24T04:39:21;9.10;;;5.90;;
1048;SDS011;513;51.444;7.196;2023-07-24T04:41:48;9.63;;;6.20;;
1048;SDS011;513;51.444;7.196;2023-07-24T04:44:15;9.48;;;6.28;;
1048;SDS011;513;51.444;7.196;2023-07-24T04:46:42;9.77;;;6.22;;
1048;SDS011;513;51.444;7.196;2023-07-24T04:49:09;9.90;;;6.22;;
1048;SDS011;513;51.444;7.196;2023-07-24T04:51:36;11.23;;;6.20;;
1048;SDS011;513;51.444;7.196;2023-07-24T04:54:04;9.02;;;6.13;;
1048;SDS011;513;51.444;7.196;2023-07-24T04:56:31;12.70;;;6.93;;
1048;SDS011;513;51.444;7.196;2023-07-24T04:58:58;10.20;;;6.45;;
1048;SDS011;513;51.444;7.196;2023-07-24T05:01:25;11.60;;;6.63;;
1048;SDS011;513;51.444;7.196;2023-07-24T05:03:52;9.27;;;6.53;;
1048;SDS011;513;51.444;7.196;2023-07-24T05:06:19;10.00;;;6.75;;
1048;SDS011;513;51.444;7.196;2023-07-24T05:08:46;12.52;;;6.47;;
1048;SDS011;513;51.444;7.196;2023-07-24T05:11:15;10.70;;;6.95;;
1048;SDS011;513;51.444;7.196;2023-07-24T05:13:42;9.48;;;6.55;;
1048;SDS011;513;51.444;7.196;2023-07-24T05:16:09;10.10;;;6.55;;
1048;SDS011;513;51.444;7.196;2023-07-24T05:18:36;10.13;;;6.87;;
1048;SDS011;513;51.444;7.196;2023-07-24T05:21:03;10.32;;;6.57;;
1048;SDS011;513;51.444;7.196;2023-07-24T05:23:30;11.55;;;7.20;;
1048;SDS011;513;51.444;7.196;2023-07-24T05:25:57;9.73;;;6.28;;
1048;SDS011;513;51.444;7.196;2023-07-24T05:28:26;12.98;;;6.93;;
1048;SDS011;513;51.444;7.196;2023-07-24T05:30:53;7.60;;;6.00;;
1048;SDS011;513;51.444;7.196;2023-07-24T05:33:20;9.48;;;6.07;;
1048;SDS011;513;51.444;7.196;2023-07-24T05:35:48;9.10;;;6.05;;
1048;SDS011;513;51.444;7.196;2023-07-24T05:38:15;9.02;;;5.90;;
1048;SDS011;513;51.444;7.196;2023-07-24T05:40:42;9.00;;;6.13;;
1048;SDS011;513;51.444;7.196;2023-07-24T05:43:09;9.20;;;6.20;;
1048;SDS011;513;51.444;7.196;2023-07-24T05:45:38;9.85;;;6.68;;
1048;SDS011;513;51.444;7.196;2023-07-24T05:48:05;9.23;;;6.25;;
1048;SDS011;513;51.444;7.196;2023-07-24T05:50:32;11.82;;;6.60;;
1048;SDS011;513;51.444;7.196;2023-07-24T05:52:59;11.45;;;6.18;;
1048;SDS011;513;51.444;7.196;2023-07-24T05:55:26;9.27;;;6.20;;
1048;SDS011;513;51.444;7.196;2023-07-24T05:57:53;8.75;;;6.28;;
1048;SDS011;513;51.444;7.196;2023-07-24T06:00:20;8.75;;;6.35;;
1048;SDS011;513;51.444;7.196;2023-07-24T06:02:48;8.90;;;6.05;;
1048;SDS011;513;51.444;7.196;2023-07-24T06:05:15;9.70;;;5.95;;
1048;SDS011;513;51.444;7.196;2023-07-24T06:07:44;8.52;;;5.63;;
1048;SDS011;513;51.444;7.196;2023-07-24T06:10:11;8.60;;;5.68;;
1048;SDS011;513;51.444;7.196;2023-07-24T06:12:38;7.22;;;5.50;;
1048;SDS011;513;51.444;7.196;2023-07-24T06:15:06;8.85;;;5.55;;
1048;SDS011;513;51.444;7.196;2023-07-24T06:17:33;8.17;;;5.90;;
1048;SDS011;513;51.444;7.196;2023-07-24T06:20:01;10.68;;;6.30;;
1048;SDS011;513;51.444;7.196;2023-07-24T06:22:28;8.60;;;6.27;;
1048;SDS011;513;51.444;7.196;2023-07-24T06:24:55;10.55;;;5.80;;
1048;SDS011;513;51.444;7.196;2023-07-24T06:27:23;8.80;;;6.10;;
1048;SDS011;513;51.444;7.196;2023-07-24T06:29:50;8.60;;;5.85;;
1048;SDS011;513;51.444;7.196;2023-07-24T06:32:17;8.05;;;6.10;;
1048;SDS011;513;51.444;7.196;2023-07-24T06:34:44;9.87;;;5.87;;
1048;SDS011;513;51.444;7.196;2023-07-24T06:37:12;9.82;;;6.30;;
1048;SDS011;513;51.444;7.196;2023-07-24T06:39:39;9.13;;;6.77;;
1048;SDS011;513;51.444;7.196;2023-07-24T06:42:07;9.90;;;6.27;;
1048;SDS011;513;51.444;7.196;2023-07-24T06:44:34;9.23;;;6.68;;
1048;SDS011;513;51.444;7.196;2023-07-24T06:47:01;7.88;;;6.03;;
1048;SDS011;513;51.444;7.196;2023-07-24T06:49:28;10.23;;;6.60;;
1048;SDS011;513;51.444;7.196;2023-07-24T06:51:55;11.07;;;6.68;;
1048;SDS011;513;51.444;7.196;2023-07-24T06:54:23;9.48;;;6.18;;
1048;SDS011;513;51.444;7.196;2023-07-24T06:56:50;7.97;;;5.82;;
1048;SDS011;513;51.444;7.196;2023-07-24T06:59:17;8.48;;;6.03;;
1048;SDS011;513;51.444;7.196;2023-07-24T07:01:44;8.00;;;5.93;;
1048;SDS011;513;51.444;7.196;2023-07-24T07:04:11;7.97;;;5.93;;
1048;SDS011;513;51.444;7.196;2023-07-24T07:06:38;9.65;;;5.63;;
1048;SDS011;513;51.444;7.196;2023-07-24T07:09:05;7.95;;;5.90;;
1048;SDS011;513;51.444;7.196;2023-07-24T07:11:33;8.18;;;6.22;;
1048;SDS011;513;51.444;7.196;2023-07-24T07:14:00;8.40;;;5.75;;
1048;SDS011;513;51.444;7.196;2023-07-24T07:16:27;6.90;;;5.32;;
1048;SDS011;513;51.444;7.196;2023-07-24T07:18:54;8.20;;;5.68;;
1048;SDS011;513;51.444;7.196;2023-07-24T07:21:21;8.00;;;5.10;;
1048;SDS011;513;51.444;7.196;2023-07-24T07:23:48;7.38;;;5.07;;
1048;SDS011;513;51.444;7.196;2023-07-24T07:26:15;8.45;;;5.40;;
1048;SDS011;513;51.444;7.196;2023-07-24T07:28:44;8.10;;;5.50;;
1048;SDS011;513;51.444;7.196;2023-07-24T07:31:11;8.32;;;5.35;;
1048;SDS011;513;51.444;7.196;2023-07-24T07:33:38;7.23;;;5.20;;
1048;SDS011;513;51.444;7.196;2023-07-24T07:36:05;8.55;;;5.05;;
1048;SDS011;513;51.444;7.196;2023-07-24T07:38:32;7.13;;;4.97;;
1048;SDS011;513;51.444;7.196;2023-07-24T07:41:03;8.32;;;5.25;;
1048;SDS011;513;51.444;7.196;2023-07-24T07:43:30;7.35;;;4.90;;
1048;SDS011;513;51.444;7.196;2023-07-24T07:45:58;5.93;;;4.53;;
1048;SDS011;513;51.444;7.196;2023-07-24T07:48:25;7.38;;;4.72;;
1048;SDS011;513;51.444;7.196;2023-07-24T07:50:52;7.07;;;5.05;;
1048;SDS011;513;51.444;7.196;2023-07-24T07:53:19;8.30;;;4.80;;
1048;SDS011;513;51.444;7.196;2023-07-24T07:55:54;7.03;;;5.00;;
1048;SDS011;513;51.444;7.196;2023-07-24T07:58:21;6.35;;;4.78;;
1048;SDS011;513;51.444;7.196;2023-07-24T08:00:49;6.40;;;4.78;;
1048;SDS011;513;51.444;7.196;2023-07-24T08:03:17;5.97;;;4.70;;
1048;SDS011;513;51.444;7.196;2023-07-24T08:05:44;6.60;;;4.78;;
1048;SDS011;513;51.444;7.196;2023-07-24T08:08:11;5.65;;;4.30;;
1048;SDS011;513;51.444;7.196;2023-07-24T08:10:38;6.30;;;4.80;;
1048;SDS011;513;51.444;7.196;2023-07-24T08:13:05;7.10;;;4.72;;
1048;SDS011;513;51.444;7.196;2023-07-24T08:15:33;5.50;;;3.90;;
1048;SDS011;513;51.444;7.196;2023-07-24T08:18:00;6.10;;;3.88;;
1048;SDS011;513;51.444;7.196;2023-07-24T08:20:29;5.47;;;4.00;;
1048;SDS011;513;51.444;7.196;2023-07-24T08:22:56;6.25;;;3.83;;
1048;SDS011;513;51.444;7.196;2023-07-24T08:25:23;5.28;;;4.07;;
1048;SDS011;513;51.444;7.196;2023-07-24T08:27:50;5.93;;;3.97;;
1048;SDS011;513;51.444;7.196;2023-07-24T08:30:17;6.45;;;3.75;;
1048;SDS011;513;51.444;7.196;2023-07-24T08:32:45;5.18;;;3.70;;
1048;SDS011;513;51.444;7.196;2023-07-24T08:35:12;4.97;;;3.50;;
1048;SDS011;513;51.444;7.196;2023-07-24T08:37:43;5.10;;;3.60;;
1048;SDS011;513;51.444;7.196;2023-07-24T08:40:10;5.22;;;3.42;;
1048;SDS011;513;51.444;7.196;2023-07-24T08:42:38;4.60;;;3.60;;
1048;SDS011;513;51.444;7.196;2023-07-24T08:45:08;5.88;;;3.63;;
1048;SDS011;513;51.444;7.196;2023-07-24T08:47:35;5.45;;;3.75;;
1048;SDS011;513;51.444;7.196;2023-07-24T08:50:02;5.35;;;3.47;;
1048;SDS011;513;51.444;7.196;2023-07-24T08:52:30;6.78;;;3.67;;
1048;SDS011;513;51.444;7.196;2023-07-24T08:54:59;4.45;;;3.30;;
1048;SDS011;513;51.444;7.196;2023-07-24T08:57:28;4.85;;;3.50;;
1048;SDS011;513;51.444;7.196;2023-07-24T08:59:55;7.18;;;3.60;;
1048;SDS011;513;51.444;7.196;2023-07-24T09:02:23;5.95;;;3.92;;
1048;SDS011;513;51.444;7.196;2023-07-24T09:04:51;3.95;;;3.10;;
1048;SDS011;513;51.444;7.196;2023-07-24T09:07:18;6.80;;;3.55;;
1048;SDS011;513;51.444;7.196;2023-07-24T09:09:46;5.07;;;3.42;;
1048;SDS011;513;51.444;7.196;2023-07-24T09:12:16;5.43;;;3.77;;
1048;SDS011;513;51.444;7.196;2023-07-24T09:14:43;6.80;;;3.38;;
1048;SDS011;513;51.444;7.196;2023-07-24T09:17:10;6.75;;;3.60;;
1048;SDS011;513;51.444;7.196;2023-07-24T09:19:38;4.88;;;3.20;;
1048;SDS011;513;51.444;7.196;2023-07-24T09:22:08;6.38;;;3.95;;
1048;SDS011;513;51.444;7.196;2023-07-24T09:24:36;5.88;;;3.50;;
1048;SDS011;513;51.444;7.196;2023-07-24T09:27:04;4.68;;;3.70;;
1048;SDS011;513;51.444;7.196;2023-07-24T09:29:33;5.68;;;3.65;;
1048;SDS011;513;51.444;7.196;2023-07-24T09:32:01;5.27;;;3.70;;
1048;SDS011;513;51.444;7.196;2023-07-24T09:34:28;5.22;;;3.65;;
1048;SDS011;513;51.444;7.196;2023-07-24T09:36:55;7.45;;;3.72;;
1048;SDS011;513;51.444;7.196;2023-07-24T09:39:23;5.75;;;3.58;;
1048;SDS011;513;51.444;7.196;2023-07-24T09:41:50;5.50;;;3.55;;
1048;SDS011;513;51.444;7.196;2023-07-24T09:44:17;4.57;;;3.50;;
1048;SDS011;513;51.444;7.196;2023-07-24T09:46:46;6.75;;;3.35;;
1048;SDS011;513;51.444;7.196;2023-07-24T09:49:13;5.22;;;3.47;;
1048;SDS011;513;51.444;7.196;2023-07-24T09:51:40;3.83;;;3.20;;
1048;SDS011;513;51.444;7.196;2023-07-24T09:54:12;6.95;;;3.60;;
1048;SDS011;513;51.444;7.196;2023-07-24T09:56:40;5.00;;;3.30;;
1048;SDS011;513;51.444;7.196;2023-07-24T09:59:09;5.33;;;3.57;;
1048;SDS011;513;51.444;7.196;2023-07-24T10:01:37;5.55;;;3.80;;
1048;SDS011;513;51.444;7.196;2023-07-24T10:04:05;3.97;;;3.35;;
1048;SDS011;513;51.444;7.196;2023-07-24T10:06:34;4.57;;;3.60;;
1048;SDS011;513;51.444;7.196;2023-07-24T10:09:01;7.05;;;4.00;;
1048;SDS011;513;51.444;7.196;2023-07-24T10:11:28;5.35;;;4.18;;
1048;SDS011;513;51.444;7.196;2023-07-24T10:13:56;6.47;;;4.27;;
1048;SDS011;513;51.444;7.196;2023-07-24T10:16:23;5.72;;;4.10;;
1048;SDS011;513;51.444;7.196;2023-07-24T10:18:50;6.90;;;4.18;;
1048;SDS011;513;51.444;7.196;2023-07-24T10:21:18;8.75;;;4.53;;
1048;SDS011;513;51.444;7.196;2023-07-24T10:23:52;5.25;;;3.90;;
1048;SDS011;513;51.444;7.196;2023-07-24T10:26:24;5.35;;;3.97;;
1048;SDS011;513;51.444;7.196;2023-07-24T10:28:51;7.28;;;4.10;;
1048;SDS011;513;51.444;7.196;2023-07-24T10:31:19;7.23;;;4.07;;
1048;SDS011;513;51.444;7.196;2023-07-24T10:33:46;8.30;;;4.03;;
1048;SDS011;513;51.444;7.196;2023-07-24T10:36:16;4.93;;;3.92;;
1048;SDS011;513;51.444;7.196;2023-07-24T10:38:46;6.05;;;4.20;;
1048;SDS011;513;51.444;7.196;2023-07-24T10:41:15;7.22;;;4.18;;
1048;SDS011;513;51.444;7.196;2023-07-24T10:43:43;7.30;;;4.53;;
1048;SDS011;513;51.444;7.196;2023-07-24T10:46:11;7.40;;;4.63;;
1048;SDS011;513;51.444;7.196;2023-07-24T10:48:38;5.87;;;4.57;;
1048;SDS011;513;51.444;7.196;2023-07-24T10:51:09;5.88;;;3.80;;
1048;SDS011;513;51.444;7.196;2023-07-24T10:53:40;6.90;;;4.20;;
1048;SDS011;513;51.444;7.196;2023-07-24T10:56:09;5.38;;;4.35;;
1048;SDS011;513;51.444;7.196;2023-07-24T10:58:36;5.90;;;4.47;;
1048;SDS011;513;51.444;7.196;2023-07-24T11:01:03;5.25;;;4.47;;
1048;SDS011;513;51.444;7.196;2023-07-24T11:03:30;7.00;;;4.10;;
1048;SDS011;513;51.444;7.196;2023-07-24T11:05:58;6.35;;;4.60;;
1048;SDS011;513;51.444;7.196;2023-07-24T11:08:25;6.07;;;4.70;;
1048;SDS011;513;51.444;7.196;2023-07-24T11:10:52;5.43;;;4.60;;
1048;SDS011;513;51.444;7.196;2023-07-24T11:13:22;7.05;;;4.90;;
1048;SDS011;513;51.444;7.196;2023-07-24T11:15:49;5.80;;;5.03;;
1048;SDS011;513;51.444;7.196;2023-07-24T11:18:17;9.93;;;5.17;;
1048;SDS011;513;51.444;7.196;2023-07-24T11:20:46;7.10;;;5.05;;
1048;SDS011;513;51.444;7.196;2023-07-24T11:23:13;9.17;;;5.43;;
1048;SDS011;513;51.444;7.196;2023-07-24T11:25:41;6.30;;;5.23;;
1048;SDS011;513;51.444;7.196;2023-07-24T11:28:10;9.25;;;5.00;;
1048;SDS011;513;51.444;7.196;2023-07-24T11:30:39;6.38;;;4.63;;
1048;SDS011;513;51.444;7.196;2023-07-24T11:33:07;4.85;;;4.35;;
1048;SDS011;513;51.444;7.196;2023-07-24T11:35:34;6.28;;;4.93;;
1048;SDS011;513;51.444;7.196;2023-07-24T11:38:03;5.05;;;4.50;;
1048;SDS011;513;51.444;7.196;2023-07-24T11:40:31;6.55;;;5.07;;
1048;SDS011;513;51.444;7.196;2023-07-24T11:42:58;5.40;;;4.57;;
1048;SDS011;513;51.444;7.196;2023-07-24T11:45:25;6.22;;;4.97;;
1048;SDS011;513;51.444;7.196;2023-07-24T11:47:54;7.18;;;5.15;;
1048;SDS011;513;51.444;7.196;2023-07-24T11:50:21;5.65;;;4.68;;
1048;SDS011;513;51.444;7.196;2023-07-24T11:52:49;6.40;;;4.93;;
1048;SDS011;513;51.444;7.196;2023-07-24T11:55:17;6.90;;;5.00;;
1048;SDS011;513;51.444;7.196;2023-07-24T11:57:54;6.43;;;5.10;;
1048;SDS011;513;51.444;7.196;2023-07-24T12:00:22;7.82;;;4.93;;
1048;SDS011;513;51.444;7.196;2023-07-24T12:02:49;7.60;;;5.63;;
1048;SDS011;513;51.444;7.196;2023-07-24T12:05:18;12.65;;;6.55;;
1048;SDS011;513;51.444;7.196;2023-07-24T12:07:45;10.73;;;5.20;;
1048;SDS011;513;51.444;7.196;2023-07-24T12:10:12;9.38;;;3.95;;
1048;SDS011;513;51.444;7.196;2023-07-24T12:12:40;9.07;;;3.13;;
1048;SDS011;513;51.444;7.196;2023-07-24T12:15:09;7.88;;;3.10;;
1048;SDS011;513;51.444;7.196;2023-07-24T12:17:36;6.40;;;3.00;;
1048;SDS011;513;51.444;7.196;2023-07-24T12:20:04;6.55;;;3.00;;
1048;SDS011;513;51.444;7.196;2023-07-24T12:22:34;5.35;;;2.20;;
1048;SDS011;513;51.444;7.196;2023-07-24T12:25:01;4.88;;;2.10;;
1048;SDS011;513;51.444;7.196;2023-07-24T12:27:29;7.23;;;2.30;;
1048;SDS011;513;51.444;7.196;2023-07-24T12:29:56;7.00;;;2.28;;
1048;SDS011;513;51.444;7.196;2023-07-24T12:32:23;13.32;;;2.10;;
1048;SDS011;513;51.444;7.196;2023-07-24T12:34:50;5.53;;;1.88;;
1048;SDS011;513;51.444;7.196;2023-07-24T12:37:17;2.95;;;1.70;;
1048;SDS011;513;51.444;7.196;2023-07-24T12:39:46;3.03;;;1.73;;
1048;SDS011;513;51.444;7.196;2023-07-24T12:42:13;4.85;;;1.80;;
1048;SDS011;513;51.444;7.196;2023-07-24T12:44:41;3.90;;;1.80;;
1048;SDS011;513;51.444;7.196;2023-07-24T12:47:09;2.13;;;1.60;;
1048;SDS011;513;51.444;7.196;2023-07-24T12:49:36;4.00;;;1.90;;
1048;SDS011;513;51.444;7.196;2023-07-24T12:52:03;2.60;;;1.67;;
1048;SDS011;513;51.444;7.196;2023-07-24T12:54:31;3.20;;;1.40;;
1048;SDS011;513;51.444;7.196;2023-07-24T12:56:59;2.73;;;1.40;;
1048;SDS011;513;51.444;7.196;2023-07-24T12:59:26;2.33;;;1.30;;
1048;SDS011;513;51.444;7.196;2023-07-24T13:01:53;2.20;;;1.52;;
1048;SDS011;513;51.444;7.196;2023-07-24T13:04:20;3.30;;;1.52;;
1048;SDS011;513;51.444;7.196;2023-07-24T13:06:47;2.80;;;1.30;;
1048;SDS011;513;51.444;7.196;2023-07-24T13:09:14;2.78;;;1.58;;
1048;SDS011;513;51.444;7.196;2023-07-24T13:11:41;3.38;;;1.45;;
1048;SDS011;513;51.444;7.196;2023-07-24T13:14:10;3.53;;;1.30;;
1048;SDS011;513;51.444;7.196;2023-07-24T13:16:36;2.75;;;1.15;;
1048;SDS011;513;51.444;7.196;2023-07-24T13:19:03;2.65;;;1.50;;
1048;SDS011;513;51.444;7.196;2023-07-24T13:21:30;2.22;;;1.30;;
1048;SDS011;513;51.444;7.196;2023-07-24T13:23:57;2.30;;;1.40;;
1048;SDS011;513;51.444;7.196;2023-07-24T13:26:26;2.50;;;1.50;;
1048;SDS011;513;51.444;7.196;2023-07-24T13:28:53;2.35;;;1.42;;
1048;SDS011;513;51.444;7.196;2023-07-24T13:31:21;2.22;;;1.65;;
1048;SDS011;513;51.444;7.196;2023-07-24T13:33:48;1.70;;;1.50;;
1048;SDS011;513;51.444;7.196;2023-07-24T13:36:15;1.90;;;1.45;;
1048;SDS011;513;51.444;7.196;2023-07-24T13:38:42;1.70;;;1.48;;
1048;SDS011;513;51.444;7.196;2023-07-24T13:41:09;1.93;;;1.70;;
1048;SDS011;513;51.444;7.196;2023-07-24T13:43:36;5.22;;;2.00;;
1048;SDS011;513;51.444;7.196;2023-07-24T13:46:03;2.92;;;1.70;;
1048;SDS011;513;51.444;7.196;2023-07-24T13:48:33;6.68;;;2.13;;
1048;SDS011;513;51.444;7.196;2023-07-24T13:51:00;7.43;;;1.95;;
1048;SDS011;513;51.444;7.196;2023-07-24T13:53:27;2.70;;;2.05;;
1048;SDS011;513;51.444;7.196;2023-07-24T13:55:55;2.53;;;2.03;;
1048;SDS011;513;51.444;7.196;2023-07-24T13:58:22;2.70;;;1.90;;
1048;SDS011;513;51.444;7.196;2023-07-24T14:00:49;3.00;;;2.38;;
1048;SDS011;513;51.444;7.196;2023-07-24T14:03:16;3.35;;;2.20;;
1048;SDS011;513;51.444;7.196;2023-07-24T14:05:43;3.78;;;2.22;;
1048;SDS011;513;51.444;7.196;2023-07-24T14:08:10;4.00;;;2.72;;
1048;SDS011;513;51.444;7.196;2023-07-24T14:10:37;5.25;;;2.60;;
1048;SDS011;513;51.444;7.196;2023-07-24T14:13:04;3.88;;;2.50;;
1048;SDS011;513;51.444;7.196;2023-07-24T14:15:31;4.22;;;2.33;;
1048;SDS011;513;51.444;7.196;2023-07-24T14:17:58;3.08;;;2.25;;
1048;SDS011;513;51.444;7.196;2023-07-24T14:20:25;3.10;;;2.30;;
1048;SDS011;513;51.444;7.196;2023-07-24T14:22:54;3.90;;;2.40;;
1048;SDS011;513;51.444;7.196;2023-07-24T14:25:21;3.25;;;2.55;;
1048;SDS011;513;51.444;7.196;2023-07-24T14:27:48;3.25;;;2.40;;
1048;SDS011;513;51.444;7.196;2023-07-24T14:30:15;3.22;;;2.90;;
1048;SDS011;513;51.444;7.196;2023-07-24T14:32:42;3.22;;;2.83;;
1048;SDS011;513;51.444;7.196;2023-07-24T14:35:09;4.68;;;3.00;;
1048;SDS011;513;51.444;7.196;2023-07-24T14:37:36;3.78;;;2.90;;
1048;SDS011;513;51.444;7.196;2023-07-24T14:40:05;3.88;;;3.00;;
1048;SDS011;513;51.444;7.196;2023-07-24T14:42:32;4.25;;;3.20;;
1048;SDS011;513;51.444;7.196;2023-07-24T14:44:59;3.63;;;2.90;;
1048;SDS011;513;51.444;7.196;2023-07-24T14:47:27;3.58;;;2.95;;
1048;SDS011;513;51.444;7.196;2023-07-24T14:49:55;3.40;;;3.00;;
1048;SDS011;513;51.444;7.196;2023-07-24T14:52:22;3.90;;;3.30;;
1048;SDS011;513;51.444;7.196;2023-07-24T14:54:49;5.20;;;3.95;;
1048;SDS011;513;51.444;7.196;2023-07-24T14:57:17;5.50;;;4.83;;
1048;SDS011;513;51.444;7.196;2023-07-24T14:59:44;7.25;;;5.32;;
1048;SDS011;513;51.444;7.196;2023-07-24T15:02:11;6.28;;;5.68;;
1048;SDS011;513;51.444;7.196;2023-07-24T15:04:38;8.18;;;6.38;;
1048;SDS011;513;51.444;7.196;2023-07-24T15:07:05;8.70;;;7.47;;
1048;SDS011;513;51.444;7.196;2023-07-24T15:09:32;10.90;;;8.85;;
1048;SDS011;513;51.444;7.196;2023-07-24T15:11:59;9.88;;;8.60;;
1048;SDS011;513;51.444;7.196;2023-07-24T15:14:27;9.13;;;8.15;;
1048;SDS011;513;51.444;7.196;2023-07-24T15:16:54;7.90;;;7.10;;
1048;SDS011;513;51.444;7.196;2023-07-24T15:19:22;10.27;;;8.00;;
1048;SDS011;513;51.444;7.196;2023-07-24T15:21:49;6.28;;;5.68;;
1048;SDS011;513;51.444;7.196;2023-07-24T15:24:16;7.87;;;5.70;;
1048;SDS011;513;51.444;7.196;2023-07-24T15:26:43;5.47;;;4.85;;
1048;SDS011;513;51.444;7.196;2023-07-24T15:29:10;5.53;;;4.28;;
1048;SDS011;513;51.444;7.196;2023-07-24T15:31:39;3.97;;;3.17;;